Timeline UpdatesTrip UpdatesNews PostsPvt PostsTravel TipsAdmin PostsConv PostsFollowed PostsChat RequestsBlog PostsPNR Posts

Disclaimer
Search
 
 
Wed Oct 1, 2014 17:47:11 ISTHomeTrainsΣChainsAtlasPNRForumGalleryNewsFAQTripsMembersLoginFeedback
No Recent News for this Train
Other Trains in the News **new
Latest...
.
Sat Feb 01, 2014 (02:24PM)
⇐ Return Journey: Train# 18233

18234/Narmada Express

Time-Table HAS CHANGED.
Sep 03 (8:16PM)
Change Departure Station:
Change Arrival Station:
Post a Train Travel TipPost a Train Travel Tip **new
Post a Comment/Question/Picture/VideoPost a Comment/Question/Picture/Video
Pantry/Catering
✕ NO Pantry Car
✓ Catering Avbl
Loco/Rake Reversals
UJN/Ujjain Junction (8); ET/Itarsi Junction (7); KTE/Katni Junction (6);
RSA - Rake Sharing
No RSA..
Rake/Coach Composition
ENG-SLR-GS-GS-GS-S1-S2-S3-S4-S5-S6-S7-S8-S9-S10-A1-HA1-B1-B2-GS-GS-SLR (BSP-KTE), (ET-UJN); ENG-SLR-GS-GS-B2-B1-HA1-A1-S10-S9-S8-S7-S6-S5-S4-S3-S2-S1-GS-GS-GS-SLR (KTE-ET), (UJN,INDB).
Loco
ET WAM 4/6p (BSP-KTE) ET WDP 4/WDM-3A (KTE-ET) ET WAM 4/6p (ET-INDB)
News    PNR    Forum    Time-Table    Availability    Fare Chart    Map    Arr/Dep History    Trips    Gallery    ΣChains    X/O    Timeline    
Travel Time: 8h 25m    28 halts    Distance: 319 km    Avg Speed: 37 km/hr
Type: Mail/Express
Zone: SECR/South East Central
Departs @ 10:00 (Avg on time)
Platform# 8
SMTWTFS
Bilaspur Junction/BSP 
Arrives @ 18:25 (Avg 13m late)
Platform# 3
SMTWTFS
Katni Junction/KTE 

28 halts. 37 intermediate Stations between Bilaspur Junction and Katni Junction

Show ALL intermediate Stations  Show Old Time-Table

#CodeStation NameX/OArrivesAvgDepartsAvgHaltPFDay#KmSpeedElevZoneAddress
1BSPBilaspur Junction (8)»  -09:55 10:00+0810.043271mSECRBilaspur, Chhattisgarh
2USLUslapur (3)  10:08 10:12+710:10 10:14+72m--18.6115272mSECRBilaspur, Chhattisgarh
3GTKGhutkuX  10:16 10:18+1210:17 10:20+121 2m--116.268288mSECRBilaspur, Chhattisgarh
4KLTRKalmitarX  10:25 10:27+1410:26 10:29+141 2m--124.252300mSECRUsalapur, Chhattisgarh
5KGBKargi Road  10:37 10:38+1310:38 10:40+131 2m--132.061327mSECRBilaspur, Chhattisgarh
6SLKRSalkaroadX  10:47 10:48+1510:48 10:50+181 2m--140.246333mSECRGhutku, Chhattisgarh
7BIGBelgahna  10:59 11:00+1811:00 11:02+191 2m--147.874327mSECRBilaspur, Chhattisgarh
8TGQTenganmada  11:09 11:10+2111:10 11:12+231 2m--157.664367mSECRBelgahna, Chhattisgarh
9KGSKhongsaraX  11:19 11:20+2511:20 11:22+271 2m--166.150378mSECRBhanwar, Chhattisgarh
10BHTKBhanwar TonkX  11:36 11:37+2911:37 11:39+291 2m--178.649455mSECRKhodri, Chhattisgarh
11KOIKhodri  11:52 11:53+3111:53 11:55+351 2m--190.130558mSECRBilaspur, Chhattisgarh
12PNDPendra Road  12:15 12:18+3212:20+355 2m--1101.5101620mSECRBilaspur district, Chhattisgarh
13HRBHarri  12:26 12:25+4012:27+431 2m--1110.079595mSECRVenkatnagar, Madhya Pradesh
14VKRVenkatnagar  12:36 12:35+4512:37+481 2m--1120.665549mSECRPendra Rd, Madhya Pradesh
15NIQNigaura  12:45 12:44+5012:46+561 2m--1128.280547mSECRAnuppur, Madhya Pradesh
16JTIJaithari  12:55 12:54+5712:56+581 2m--1138.875522mSECRAnuppur, Madhya Pradesh
17CLFChhulhaX  13:04 13:03+1:0013:05+1:011 2m--1147.615488mSECRMauhari, Madhya Pradesh
18APRAnuppur Junction (4)  13:20 13:25+5413:25 13:30+535m--1152.795487mSECRAnuppur, Madhya Pradesh
19AALAmlai  13:34 13:38+5713:35 13:40+581 2m41165.465495mSECRAnuppur, Madhya Pradesh
20BUHBurhar  13:44 13:48+5913:45 13:50+1:011 2m21174.145494mSECRBurhar, Madhya Pradesh
21SNGPSinghpur  13:59 14:08+1:0114:00 14:10+1:011 2m--1187.78502mSECRBurhar, Madhya Pradesh
22SDLShahdolX  14:50 14:55+2315:00 15:05+2410m11193.668466mSECR, Madhya Pradesh
23BRSBirsinghpur  15:34 15:38+3115:35 15:40+311 2m21231.062461mSECRPali, Madhya Pradesh
24NRZBNowrozabad  15:43 15:47+3215:44 15:49+331 2m--1238.267458mSECRNational Highway 78, Madhya Pradesh
25KKIKarkeliX  15:54 15:58+3315:55 16:00+331 2m--1248.250471mSECRUmaria, Madhya Pradesh
26UMRUmaria (3)X  16:10 16:15+3216:15 16:17+325 2m--1260.867469mSECRUmaria, Madhya Pradesh
27CHDChandia Road (1)X  16:30 16:34+3416:31 16:36+361 2m11279.847406mSECRNational Highway 78, Madhya Pradesh
28RPDRupaundX  16:54 16:58+3116:55 17:00+331 2m--1297.116417mSECRJhalwara, Madhya Pradesh
29JLWJhalwaraO  17:41 17:45+217:42 17:47+61 2m--1308.917406mSECRNational Highway 78, Madhya Pradesh
30KTEKatni Junction (6)•X18:25+1318:45 18:35+2020 10m31319.453387mWCRKatni, Madhya Pradesh
31NWRNiwar (2)  18:51 18:50+3418:52+391 2m--1332.667412mWCRPipraundh, Madhya Pradesh
32SNRRSansarpur (2)X  19:00 18:59-19:01-1 2m--1340.459436mWCRNational Highway 7, Madhya Pradesh
33SBDSleemanabad Road (2)X  19:09 19:08+4019:10+401 2m--1347.371434mWCRSleemanabad, Madhya Pradesh
34DDCEDundi (2)  19:19 19:18+4119:20+471 2m--1356.890415mWCRDundi, Madhya Pradesh
35SHRSihora Road (2)X  19:30+4919:32+492m--1371.748388mWCRJabalpur, Madhya Pradesh
36GSPRGosalpur (2)  19:46+4719:47+491m--1382.842396mWCRJabalpur, Madhya Pradesh
37DOEDeori (2)  20:02+4520:03+481m--1393.333392mWCRJabalpur, Madhya Pradesh
38ADTLAdhartal (2)X  20:19+4220:20+511m--1402.114393mWCRJabalpur, Madhya Pradesh
39JBPJabalpur Junction (4)X  20:50 20:55+3121:00 21:05+3510m11410.350416mWCRJabalpur, Madhya Pradesh
40MMLMadan Mahal (3)  21:09+4021:11+402m11413.683428mWCRJabalpur, Madhya Pradesh
41SRIDShridham (3)X  21:45 21:47+4421:47 21:49+492m31463.250373mWCRShridham, Madhya Pradesh
42NUNarsinghpur (2)X  22:26+4522:28+462m21494.363365mWCRNarsimhapur, Madhya Pradesh
43KYKareli (2)  22:44 22:43+4522:45+461 2m21510.286361mWCRKareli, Madhya Pradesh
44GARGadarwara (2)O  23:06 23:05+4923:07+521 2m21538.7104352mWCRNarsinghpur, Madhya Pradesh
45SCKRSalichauka Road (2)O  23:16 23:15+5523:17+571 2m--1552.647355mWCRGadarwara, Madhya Pradesh
46PPIPipariya (3)X  00:02+3800:04+382m22588.066338mWCRPiparia, Madhya Pradesh
47SGPSohagpur (2)  00:20+3800:21+391m--2605.840340mWCRSohagpur, Madhya Pradesh
48BGTABagratawa (2)X  00:57 00:56+2200:58+251 2m--2628.830338mWCRBagra Tawa, Madhya Pradesh
49ETItarsi Junction (7)X01:50+1802:05+2515m42655.360329mWCRItarsi 461111, Madhya Pradesh
50HBDHoshangabad (2)X  02:24 02:23+3102:25+321 2m--2673.453308mWCRHoshangabad, Madhya Pradesh
51ODGObaidulla Ganj  03:09 03:08+3803:10+381 2m22711.162 WCRObaidullaganj Raisen Dist., Madhya Pradesh
52MDDPMandi Dip (1)X  03:24 03:23+3503:25+361 2m12724.657 WCRMandideep, Madhya Pradesh
53HBJBhopal HabibGanj (5)X  03:43 03:42+4003:44+311 2m12740.712496mWCRHabibGanj, Madhya Pradesh
54BPLBhopal Junction (6)  04:15+1804:25+2310m42747.028497mWCRBhopal, Madhya Pradesh
55BIHBairagarh (2)X  04:46 04:47+3904:47 04:49+391 2m12757.271522mWRBhopal, Madhya Pradesh
56SEHSehore (2)X  05:12 05:13+3905:13 05:15+401 2m12785.773500mWRMP 466001, Madhya Pradesh
57KPPKalapipal (2)  05:38 05:39+3905:39 05:41+401 2m--2814.763487mWRState Highway 41, Madhya Pradesh
58SJPShujalpur (3)  05:52 05:53+4105:53 05:55+411 2m--2827.365453mWRShujalpur, Madhya Pradesh
59AKDAkodia (2)  06:06 06:07+4006:07 06:09+401 2m--2840.477460mWRDist. Shajapur, Madhya Pradesh
60KSHKali Sindh (2)X  06:22 06:23+4106:23 06:25+401 2m--2858.366443mWRShajapur, Madhya Pradesh
61BCHBerchha (2)X  06:35 06:36+4106:36 06:38+421 2m--2870.460490mWRShajapur, Madhya Pradesh
62MKCMaksi Junction (3)X  06:57+4106:59+402m--2889.357513mWRMakshi, Madhya Pradesh
63TANTarana Road  07:08 07:09+4107:09 07:11+411 2m--2898.934498mWRMaksi, Madhya Pradesh
64UJNUjjain Junction (8)08:10+1308:30+2120m62932.322492mWRUjjain 456001, Madhya Pradesh
65VRGVikram Nagar (2)  08:44 08:45+2708:45 08:47+341 2m--2937.825503mWRUjjain, Madhya Pradesh
66KDHAKarchhaX  09:15 09:16+1809:16 09:18+261 2m--2950.028514mWRState Highway 18, Madhya Pradesh
67UDMUndasa Madhopur  09:29 09:30-09:30 09:31-1m--2955.690528mWRState Highway 18, Madhya Pradesh
68NRGRNaranjipur (1)  09:35 09:36+2009:36 09:37+241m12963.144537mWRDewas, Madhya Pradesh
69DWXDewas Junction (2)  09:50+2609:52+312m--2972.731541mWRDewas, Madhya Pradesh
70BLAXBarlaiX  10:18 10:19+1710:19 10:20+231m--2986.535519mWRIndore, Madhya Pradesh
71MGGMangliyagaon (2)  10:36 10:37+2010:37 10:38+221m--2996.553534mWRMangilya, Madhya Pradesh
72LMNRLaxmibai Nagar (3)  10:50 10:51+2010:51 10:52+211m--21008.026543mWRIndore, Madhya Pradesh
73INDBIndore Junction BG (3)  11:00+16-321011.5-552mWRIndore 452001, Madhya Pradesh
Scroll to Top
Scroll to Bottom